Terminal Aerodrome Forecast
Issued by NWS Cleveland, OH

Home | Current Version | Previous Version | Graphics & Text | Print | Product List | Glossary Off
Versions: 1 2 3 4 5 6 7 8 9 10 11 12 13 14 15 16 17 18

000
FTUS41 KCLE 170800 AAA
TAFCAK
TAF AMD
KCAK 170859Z 1709/1806 02003KT P6SM SCT040
      TEMPO 1709/1713 4SM BR BKN040
     FM171400 24006KT P6SM SCT045
     FM172000 26006KT P6SM SCT250
     FM180100 VRB03KT P6SM SKC=

USA.gov is the U.S. government's official web portal to all federal, state and local government web resources and services.